Time;durP1;ratioP1;P1;durP2;ratioP2;P2;SDS_P1;SDS_P2;PMS_P1;PMS_P2;Temp;Humidity;BMP_temperature;BMP_pressure;BME280_temperature;BME280_humidity;BME280_pressure;Samples;Min_cycle;Max_cycle;Signal;HPM_P1;HPM_P2
2021/08/20 00:02:25;;;;;;;21.35;11.90;;;;;;;18.74;100.00;99203.66;1698927;84;21260;-76
2021/08/20 00:05:32;;;;;;;22.05;12.85;;;;;;;18.72;100.00;99212.20;1748895;82;21196;-77
2021/08/20 00:08:37;;;;;;;26.33;11.88;;;;;;;18.75;100.00;99210.86;1698983;84;21306;-77
2021/08/20 00:11:46;;;;;;;18.87;12.45;;;;;;;18.79;100.00;99212.86;1747257;82;22351;-76
2021/08/20 00:14:55;;;;;;;18.23;9.95;;;;;;;18.80;100.00;99206.77;1697120;83;21224;-77
2021/08/20 00:18:00;;;;;;;20.30;10.35;;;;;;;18.79;99.51;99205.10;1715315;83;21335;-77
2021/08/20 00:21:07;;;;;;;19.05;10.23;;;;;;;18.76;97.18;99215.30;1713685;83;21834;-76
2021/08/20 00:24:16;;;;;;;21.12;9.70;;;;;;;18.75;95.64;99215.02;1729480;83;21359;-76
2021/08/20 00:27:20;;;;;;;21.90;9.40;;;;;;;18.71;93.97;99217.45;1700512;84;21901;-77
2021/08/20 00:30:27;;;;;;;15.80;10.35;;;;;;;18.71;92.68;99215.23;1748351;82;21712;-76
2021/08/20 00:33:34;;;;;;;16.75;9.83;;;;;;;18.70;92.16;99210.80;1700153;84;21204;-77
2021/08/20 00:36:40;;;;;;;17.25;9.40;;;;;;;18.69;91.46;99227.12;1747626;82;21862;-77
2021/08/20 00:39:46;;;;;;;18.65;9.98;;;;;;;18.68;91.87;99226.78;1700350;84;21200;-77
2021/08/20 00:42:51;;;;;;;18.85;10.80;;;;;;;18.67;92.65;99230.65;1748783;82;21184;-76
2021/08/20 00:46:10;;;;;;;16.02;9.73;;;;;;;18.67;93.35;99232.03;1698824;84;21231;-77
2021/08/20 00:49:24;;;;;;;18.50;10.23;;;;;;;18.67;93.79;99240.34;1750044;82;21858;-77
2021/08/20 00:52:30;;;;;;;18.90;10.20;;;;;;;18.68;94.04;99236.47;1699672;84;21223;-76
2021/08/20 00:55:36;;;;;;;13.20;8.98;;;;;;;18.69;94.37;99239.05;1716616;83;21201;-77
2021/08/20 00:58:42;;;;;;;18.50;10.40;;;;;;;18.69;94.89;99232.67;1715081;83;21318;-77
2021/08/20 01:01:47;;;;;;;15.63;9.93;;;;;;;18.68;95.03;99240.11;1734125;82;21334;-76
2021/08/20 01:04:54;;;;;;;15.00;10.00;;;;;;;18.67;95.62;99242.56;1735845;82;21331;-77
2021/08/20 01:08:02;;;;;;;14.98;8.23;;;;;;;18.67;96.13;99243.11;1733409;82;21204;-76
2021/08/20 01:11:10;;;;;;;12.43;8.35;;;;;;;18.65;95.65;99233.13;1734713;82;21335;-76
2021/08/20 01:14:16;;;;;;;12.53;8.08;;;;;;;18.65;94.61;99238.67;1735814;82;21600;-76
2021/08/20 01:17:22;;;;;;;15.32;8.45;;;;;;;18.65;94.17;99237.29;1735200;82;21879;-77
2021/08/20 01:20:29;;;;;;;9.83;7.25;;;;;;;18.67;94.41;99236.19;1734088;82;21712;-76
2021/08/20 01:23:35;;;;;;;13.25;8.85;;;;;;;18.69;95.00;99235.44;1733929;82;21911;-76
2021/08/20 01:26:41;;;;;;;13.48;8.50;;;;;;;18.69;95.78;99235.44;1734541;82;21208;-77
2021/08/20 01:29:48;;;;;;;14.35;8.48;;;;;;;18.68;96.77;99235.95;1735614;82;21307;-76
2021/08/20 01:32:56;;;;;;;13.45;8.05;;;;;;;18.68;97.53;99244.78;1713206;82;21221;-76
2021/08/20 01:36:01;;;;;;;10.18;7.65;;;;;;;18.67;98.12;99238.41;1735127;82;21319;-77
2021/08/20 01:39:09;;;;;;;13.48;7.67;;;;;;;18.64;98.72;99240.33;1733796;82;21189;-77
2021/08/20 01:42:15;;;;;;;14.83;7.90;;;;;;;18.60;98.76;99230.84;1734204;82;21356;-76
2021/08/20 01:45:20;;;;;;;16.25;8.53;;;;;;;18.58;98.07;99226.95;1733718;82;21315;-76
2021/08/20 01:48:25;;;;;;;12.10;8.10;;;;;;;18.52;97.92;99229.33;1733881;82;21346;-77
2021/08/20 01:51:31;;;;;;;12.95;7.28;;;;;;;18.50;97.82;99239.84;1734904;82;21327;-77
2021/08/20 01:54:38;;;;;;;15.65;7.35;;;;;;;18.48;97.70;99246.16;1736108;82;21857;-76
2021/08/20 01:57:51;;;;;;;12.90;6.87;;;;;;;18.45;97.54;99245.30;1735857;82;21312;-76
2021/08/20 02:00:57;;;;;;;12.13;7.92;;;;;;;18.43;97.24;99243.31;1734604;82;21212;-77
2021/08/20 02:04:05;;;;;;;10.70;6.90;;;;;;;18.40;96.78;99245.23;1735806;82;21184;-77
2021/08/20 02:07:11;;;;;;;10.05;6.65;;;;;;;18.38;96.23;99259.30;1735863;82;21304;-76
2021/08/20 02:10:18;;;;;;;11.38;7.20;;;;;;;18.38;95.71;99260.69;1735764;82;21363;-77
2021/08/20 02:13:24;;;;;;;10.38;6.35;;;;;;;18.43;95.55;99268.23;1735639;82;21807;-76
2021/08/20 02:16:30;;;;;;;10.15;6.95;;;;;;;18.45;95.49;99266.62;1735722;82;21307;-77
2021/08/20 02:19:38;;;;;;;14.35;6.90;;;;;;;18.43;95.52;99258.55;1735724;82;21315;-76
2021/08/20 02:22:46;;;;;;;10.82;7.17;;;;;;;18.42;95.71;99243.03;1734718;82;21193;-77
2021/08/20 02:25:52;;;;;;;12.78;7.47;;;;;;;18.40;96.09;99245.23;1734413;82;21299;-77
2021/08/20 02:28:57;;;;;;;12.23;7.15;;;;;;;18.36;96.64;99251.81;1734208;82;21196;-77
2021/08/20 02:32:03;;;;;;;17.12;7.90;;;;;;;18.36;97.17;99259.28;1735487;82;21347;-76
2021/08/20 02:35:08;;;;;;;11.90;7.47;;;;;;;18.36;97.61;99273.95;1735577;82;21296;-77
2021/08/20 02:38:15;;;;;;;10.93;6.10;;;;;;;18.36;97.96;99279.48;1735694;82;21299;-77
2021/08/20 02:41:24;;;;;;;11.50;6.83;;;;;;;18.41;97.93;99306.42;1735944;82;21846;-77
2021/08/20 02:44:30;;;;;;;11.63;7.37;;;;;;;18.55;97.97;99331.30;1735967;82;21303;-77
2021/08/20 02:47:36;;;;;;;11.00;7.05;;;;;;;18.55;97.97;99331.30;1735695;82;21228;-76
2021/08/20 02:50:42;;;;;;;13.05;7.12;;;;;;;18.62;97.89;99340.80;1734193;82;21514;-77
2021/08/20 02:53:50;;;;;;;14.63;6.92;;;;;;;18.65;97.97;99343.08;1734230;82;21319;-76
2021/08/20 02:56:56;;;;;;;11.20;6.97;;;;;;;18.72;97.99;99342.92;1733977;82;21224;-77
2021/08/20 03:00:03;;;;;;;14.58;7.05;;;;;;;18.75;97.35;99341.88;1735074;82;21846;-76
2021/08/20 03:03:11;;;;;;;16.07;7.15;;;;;;;18.74;97.70;99341.59;1733865;82;21922;-76
2021/08/20 03:06:20;;;;;;;16.77;7.72;;;;;;;18.69;98.64;99343.45;1735086;82;21315;-76
2021/08/20 03:09:25;;;;;;;13.53;7.53;;;;;;;18.60;99.03;99346.61;1735221;82;21386;-76
2021/08/20 03:12:31;;;;;;;10.13;6.58;;;;;;;18.54;99.48;99339.86;1735920;82;21343;-76
2021/08/20 03:15:36;;;;;;;15.23;7.85;;;;;;;18.46;100.00;99341.66;1733700;82;21819;-77
2021/08/20 03:18:42;;;;;;;12.15;6.67;;;;;;;18.37;100.00;99350.38;1735165;82;21189;-77
2021/08/20 03:21:48;;;;;;;15.05;8.03;;;;;;;18.32;100.00;99349.45;1733732;82;21346;-76
2021/08/20 03:24:54;;;;;;;13.00;8.35;;;;;;;18.26;100.00;99356.83;1734552;82;21350;-76
2021/08/20 03:28:04;;;;;;;14.58;8.58;;;;;;;18.25;100.00;99352.91;1735313;82;21358;-76
2021/08/20 03:31:10;;;;;;;13.50;9.17;;;;;;;18.24;100.00;99356.22;1735382;82;21838;-76
2021/08/20 03:34:16;;;;;;;12.68;7.85;;;;;;;18.21;100.00;99342.03;1733995;82;22030;-76
2021/08/20 03:37:22;;;;;;;12.30;7.10;;;;;;;18.20;100.00;99337.59;1733633;82;21207;-76
2021/08/20 03:40:31;;;;;;;13.48;8.30;;;;;;;18.18;100.00;99329.55;1736031;82;21173;-76
2021/08/20 03:43:38;;;;;;;13.98;9.25;;;;;;;18.17;100.00;99325.12;1736117;82;21267;-76
2021/08/20 03:46:45;;;;;;;18.05;9.33;;;;;;;18.17;100.00;99325.12;1736122;82;21138;-76
2021/08/20 03:49:49;;;;;;;12.82;8.25;;;;;;;18.19;100.00;99312.40;1735478;82;21196;-77
2021/08/20 03:52:58;;;;;;;16.70;10.38;;;;;;;18.23;100.00;99317.73;1733668;82;21208;-77
2021/08/20 03:56:02;;;;;;;15.18;9.15;;;;;;;18.28;100.00;99328.89;1734721;82;21268;-76
2021/08/20 03:59:11;;;;;;;9.88;7.00;;;;;;;18.34;100.00;99322.34;1732977;82;21803;-76
2021/08/20 04:02:18;;;;;;;10.25;8.30;;;;;;;18.43;100.00;99326.92;1698946;84;21200;-77
2021/08/20 04:05:24;;;;;;;14.50;8.68;;;;;;;18.48;100.00;99323.69;1748829;82;21358;-76
2021/08/20 04:08:31;;;;;;;14.47;8.23;;;;;;;18.57;100.00;99328.27;1700179;84;21366;-76
2021/08/20 04:11:54;;;;;;;13.85;9.00;;;;;;;18.69;100.00;99319.91;1748949;82;21239;-76
2021/08/20 04:15:02;;;;;;;18.92;8.43;;;;;;;18.81;100.00;99321.47;1698907;84;21288;-76
2021/08/20 04:18:07;;;;;;;14.73;8.90;;;;;;;18.92;100.00;99315.55;1747358;82;21354;-77
2021/08/20 04:21:13;;;;;;;14.50;8.98;;;;;;;19.03;100.00;99306.28;1700356;84;21314;-77
2021/08/20 04:24:20;;;;;;;15.45;8.93;;;;;;;19.14;100.00;99299.77;1748445;82;21156;-76
2021/08/20 04:27:28;;;;;;;11.33;8.13;;;;;;;19.23;100.00;99296.55;1700561;84;21327;-77
2021/08/20 04:30:42;;;;;;;12.37;7.58;;;;;;;19.29;100.00;99301.06;1747355;82;21207;-77
2021/08/20 04:33:49;;;;;;;14.25;8.40;;;;;;;19.35;100.00;99297.28;1712076;83;21418;-77
2021/08/20 04:37:14;;;;;;;11.70;8.73;;;;;;;19.43;99.92;99291.26;1712637;83;21221;-76
2021/08/20 04:40:34;;;;;;;18.73;8.83;;;;;;;19.52;99.17;99290.25;1713691;83;21339;-77
2021/08/20 04:43:52;;;;;;;10.82;7.03;;;;;;;19.59;98.39;99279.27;1676814;83;21917;-77
2021/08/20 04:47:00;;;;;;;11.95;9.03;;;;;;;19.71;97.63;99281.06;1710364;83;21797;-77
2021/08/20 04:50:25;;;;;;;17.95;8.68;;;;;;;19.81;96.82;99282.04;1653934;86;21744;-77
2021/08/20 04:53:37;;;;;;;13.53;8.10;;;;;;;20.05;96.96;99280.33;1685615;83;21371;-76
2021/08/20 04:56:46;;;;;;;11.60;8.18;;;;;;;20.33;94.23;99280.58;1712870;83;21942;-77
2021/08/20 04:59:55;;;;;;;11.12;7.72;;;;;;;20.54;92.42;99266.31;1703902;83;21795;-77
2021/08/20 05:02:59;;;;;;;11.20;8.15;;;;;;;20.70;90.29;99265.85;1690091;85;21913;-76
2021/08/20 05:06:06;;;;;;;13.43;8.33;;;;;;;20.85;88.62;99265.97;1738528;82;21885;-77
2021/08/20 05:09:12;;;;;;;12.03;7.42;;;;;;;20.98;88.04;99278.53;1677276;85;21256;-76
2021/08/20 05:12:18;;;;;;;13.98;7.58;;;;;;;21.15;86.89;99273.62;1737157;81;21323;-77
2021/08/20 05:15:26;;;;;;;12.33;7.12;;;;;;;21.26;86.23;99273.94;1670690;85;21327;-79
2021/08/20 05:18:24;;;;;;;11.75;7.83;;;;;;;21.31;84.64;99272.60;1735595;81;21173;-79
2021/08/20 05:21:17;;;;;;;14.58;9.63;;;;;;;21.27;84.05;99281.20;1699445;83;21846;-77
2021/08/20 05:24:23;;;;;;;12.73;8.67;;;;;;;21.11;84.18;99290.00;1696996;84;21192;-77
2021/08/20 05:27:28;;;;;;;13.13;9.03;;;;;;;20.90;84.13;99285.45;1696823;84;21917;-77
2021/08/20 05:30:35;;;;;;;14.85;9.00;;;;;;;20.68;85.58;99288.36;1694402;84;21201;-78
2021/08/20 05:33:41;;;;;;;15.50;9.15;;;;;;;20.56;86.34;99292.73;1699718;84;21412;-77
2021/08/20 05:36:47;;;;;;;17.57;9.78;;;;;;;20.43;86.45;99289.81;1698230;83;21192;-77
2021/08/20 05:39:54;;;;;;;14.53;8.98;;;;;;;20.35;86.96;99293.63;1717376;83;21196;-77
2021/08/20 05:43:01;;;;;;;16.52;8.58;;;;;;;20.29;87.65;99297.48;1718649;83;21489;-78
2021/08/20 05:46:06;;;;;;;11.08;7.87;;;;;;;20.31;88.14;99304.97;1717044;82;21342;-77
2021/08/20 05:49:12;;;;;;;17.12;8.55;;;;;;;20.41;87.89;99303.11;1719266;83;21365;-77
2021/08/20 05:52:18;;;;;;;15.23;7.58;;;;;;;20.54;87.61;99292.14;1719587;83;21314;-77
2021/08/20 05:55:25;;;;;;;17.20;7.65;;;;;;;20.68;87.32;99292.52;1718858;83;21239;-77
2021/08/20 05:58:31;;;;;;;11.60;7.67;;;;;;;20.80;86.53;99293.73;1717499;83;21901;-77
2021/08/20 06:01:37;;;;;;;10.43;7.50;;;;;;;20.86;84.80;99289.88;1707192;82;21192;-77
2021/08/20 06:04:45;;;;;;;20.55;8.80;;;;;;;20.88;83.86;99297.38;1731716;81;21323;-78
2021/08/20 06:07:53;;;;;;;15.80;8.88;;;;;;;20.88;83.42;99303.77;1723977;82;21342;-77
2021/08/20 06:10:52;;;;;;;15.55;8.88;;;;;;;20.86;83.46;99303.77;1685656;85;21309;-78
2021/08/20 06:13:49;;;;;;;16.40;8.78;;;;;;;20.80;82.40;99302.06;1746157;81;21182;-77
2021/08/20 06:16:56;;;;;;;21.80;8.93;;;;;;;20.74;82.55;99292.00;1732591;82;21899;-77
2021/08/20 06:20:02;;;;;;;15.00;9.45;;;;;;;20.73;82.95;99291.72;1738751;82;21475;-77
2021/08/20 06:23:10;;;;;;;15.55;8.83;;;;;;;20.74;83.20;99298.39;1737870;82;21184;-77
2021/08/20 06:26:15;;;;;;;13.72;8.20;;;;;;;20.74;82.59;99303.11;1739564;82;21318;-76
2021/08/20 06:29:22;;;;;;;18.57;10.40;;;;;;;20.78;83.21;99298.70;1741619;82;21153;-77
2021/08/20 06:32:28;;;;;;;16.52;10.13;;;;;;;20.83;82.45;99307.91;1737901;82;21280;-78
2021/08/20 06:35:35;;;;;;;24.12;11.15;;;;;;;20.87;81.69;99306.83;1742145;82;21302;-78
2021/08/20 06:38:40;;;;;;;15.85;10.23;;;;;;;20.95;80.32;99310.50;1735744;82;21288;-77
2021/08/20 06:41:47;;;;;;;24.63;12.47;;;;;;;21.05;80.47;99310.55;1713758;82;21157;-77
2021/08/20 06:44:53;;;;;;;15.90;10.05;;;;;;;21.21;80.29;99310.62;1709630;82;21827;-78
2021/08/20 06:47:58;;;;;;;13.32;8.28;;;;;;;21.31;79.33;99315.71;1710964;82;21287;-77
2021/08/20 06:51:04;;;;;;;18.10;9.30;;;;;;;21.37;79.39;99324.38;1732807;82;21330;-77
2021/08/20 06:54:10;;;;;;;14.18;8.75;;;;;;;21.45;78.79;99321.62;1726609;82;21302;-77
2021/08/20 06:57:15;;;;;;;15.35;8.18;;;;;;;21.52;78.61;99329.17;1713274;82;21521;-77
2021/08/20 07:00:20;;;;;;;10.13;7.30;;;;;;;21.60;78.64;99322.27;1712911;82;21779;-77
2021/08/20 07:03:26;;;;;;;12.95;7.60;;;;;;;21.66;78.48;99333.13;1708464;82;21732;-77
2021/08/20 07:06:33;;;;;;;16.73;8.00;;;;;;;21.72;78.06;99333.97;1724965;82;21957;-76
2021/08/20 07:09:39;;;;;;;16.40;8.13;;;;;;;21.73;77.40;99335.64;1738129;82;21849;-77
2021/08/20 07:12:45;;;;;;;15.53;7.80;;;;;;;21.76;77.56;99342.06;1731625;82;21405;-77
2021/08/20 07:15:52;;;;;;;13.20;7.50;;;;;;;21.77;77.69;99347.06;1740323;82;21290;-77
2021/08/20 07:18:59;;;;;;;12.45;7.70;;;;;;;21.80;77.91;99338.19;1736411;82;21303;-77
2021/08/20 07:22:04;;;;;;;15.00;7.85;;;;;;;21.81;77.86;99332.89;1729062;82;21585;-77
2021/08/20 07:25:10;;;;;;;17.75;8.58;;;;;;;21.86;77.27;99329.56;1736274;81;21373;-78
2021/08/20 07:28:16;;;;;;;18.05;7.42;;;;;;;21.91;77.40;99327.34;1727717;81;21383;-77
2021/08/20 07:31:22;;;;;;;11.95;7.42;;;;;;;22.01;76.77;99317.63;1736094;81;21861;-77
2021/08/20 07:34:28;;;;;;;14.18;8.55;;;;;;;22.11;76.29;99320.98;1730828;81;21292;-78
2021/08/20 07:37:35;;;;;;;15.05;8.53;;;;;;;22.14;75.43;99314.34;1732052;81;21310;-78
2021/08/20 07:40:39;;;;;;;13.38;6.80;;;;;;;22.19;75.14;99322.70;1738660;81;21739;-78
2021/08/20 07:43:44;;;;;;;20.68;8.13;;;;;;;22.29;75.02;99332.19;1733775;82;21299;-78
2021/08/20 07:46:49;;;;;;;12.75;8.20;;;;;;;22.44;74.45;99328.01;1718226;82;21318;-78
2021/08/20 07:49:55;;;;;;;18.05;7.80;;;;;;;22.60;73.95;99332.48;1717069;82;21738;-78
2021/08/20 07:53:01;;;;;;;20.97;8.35;;;;;;;22.70;73.80;99336.66;1733502;81;21161;-78
2021/08/20 07:56:07;;;;;;;16.45;8.33;;;;;;;22.75;73.41;99333.03;1732613;81;21858;-78
2021/08/20 07:59:13;;;;;;;16.97;9.25;;;;;;;22.84;72.90;99326.33;1736713;81;21891;-78
2021/08/20 08:02:18;;;;;;;12.07;8.45;;;;;;;22.94;73.02;99333.31;1740714;81;21307;-78
2021/08/20 08:05:24;;;;;;;17.07;8.08;;;;;;;23.08;72.92;99333.58;1718599;82;21301;-78
2021/08/20 08:08:30;;;;;;;13.65;8.93;;;;;;;23.12;72.11;99332.73;1670089;85;21376;-77
2021/08/20 08:11:36;;;;;;;14.28;8.58;;;;;;;23.13;71.56;99339.97;1668029;83;21231;-78
2021/08/20 08:14:41;;;;;;;16.17;8.93;;;;;;;23.17;71.88;99338.29;1681718;85;21216;-77
2021/08/20 08:17:48;;;;;;;15.58;7.83;;;;;;;23.22;71.42;99341.62;1665512;85;22060;-77
2021/08/20 08:20:55;;;;;;;17.00;8.55;;;;;;;23.32;71.34;99347.73;1675641;85;21212;-78
2021/08/20 08:24:02;;;;;;;13.03;8.78;;;;;;;23.42;71.05;99336.53;1683036;84;21558;-77
2021/08/20 08:27:07;;;;;;;13.75;8.45;;;;;;;23.51;70.45;99331.20;1689816;83;21346;-78
2021/08/20 08:30:13;;;;;;;12.10;7.80;;;;;;;23.57;69.61;99326.73;1685130;83;21211;-78
2021/08/20 08:33:18;;;;;;;13.78;8.20;;;;;;;23.61;68.95;99318.60;1687917;84;21385;-78
2021/08/20 08:36:26;;;;;;;13.85;8.88;;;;;;;23.67;69.31;99315.55;1686406;84;21350;-78
2021/08/20 08:39:31;;;;;;;17.62;8.58;;;;;;;23.78;69.49;99314.09;1694254;83;21916;-78
2021/08/20 08:42:37;;;;;;;12.28;8.48;;;;;;;23.83;68.81;99315.46;1697507;83;21776;-78
2021/08/20 08:45:44;;;;;;;14.60;8.40;;;;;;;23.76;68.85;99314.92;1681624;83;21314;-78
2021/08/20 08:48:50;;;;;;;17.05;8.65;;;;;;;23.73;68.76;99316.91;1700450;83;21179;-77
2021/08/20 08:51:54;;;;;;;19.67;9.23;;;;;;;23.62;68.37;99316.08;1700150;83;21224;-78
2021/08/20 08:55:01;;;;;;;20.00;9.70;;;;;;;23.55;68.64;99325.33;1695290;83;21310;-78
2021/08/20 08:58:00;;;;;;;16.42;10.50;;;;;;;23.53;69.10;99327.59;1692819;83;21365;-77
2021/08/20 09:00:52;;;;;;;17.85;10.15;;;;;;;23.62;69.00;99333.69;1714770;82;21888;-78
2021/08/20 09:04:15;;;;;;;16.40;10.10;;;;;;;23.74;68.68;99336.16;1681701;84;21207;-77
2021/08/20 09:07:20;;;;;;;19.25;9.23;;;;;;;23.84;68.71;99340.30;1692058;83;21604;-77
2021/08/20 09:10:31;;;;;;;18.40;10.28;;;;;;;23.89;68.16;99351.44;1698623;82;21206;-77
2021/08/20 09:13:37;;;;;;;16.10;9.80;;;;;;;23.92;67.25;99353.66;1725401;82;21314;-78
2021/08/20 09:16:47;;;;;;;17.25;10.53;;;;;;;23.93;67.51;99353.93;1694143;83;21289;-78
2021/08/20 09:19:54;;;;;;;13.88;8.80;;;;;;;23.93;67.35;99360.08;1735172;80;21294;-77
2021/08/20 09:23:00;;;;;;;18.98;10.98;;;;;;;23.91;67.80;99365.97;1741063;82;21282;-78
2021/08/20 09:26:06;;;;;;;19.98;11.05;;;;;;;23.83;67.27;99376.33;1738761;81;21345;-77
2021/08/20 09:29:22;;;;;;;19.50;9.68;;;;;;;23.79;67.43;99377.19;1710072;83;21314;-77
2021/08/20 09:32:27;;;;;;;17.55;9.78;;;;;;;23.69;67.56;99376.10;1683137;85;21177;-77
2021/08/20 09:35:36;;;;;;;13.88;9.15;;;;;;;23.66;68.08;99370.25;1688485;84;21306;-77
2021/08/20 09:38:45;;;;;;;13.22;7.17;;;;;;;23.78;67.05;99379.70;1668534;84;21235;-77
2021/08/20 09:41:51;;;;;;;;;;;;;;;23.88;67.24;99379.66;1745839;82;21495;-78
2021/08/20 09:44:57;;;;;;;19.77;9.83;;;;;;;23.98;67.14;99367.86;1743460;82;20224;-78
2021/08/20 09:48:08;;;;;;;13.88;9.23;;;;;;;24.15;66.17;99366.67;1737993;82;21211;-77
2021/08/20 09:51:14;;;;;;;16.67;9.63;;;;;;;24.35;66.47;99373.52;1744168;82;21156;-78
2021/08/20 09:54:26;;;;;;;17.55;9.33;;;;;;;24.58;66.14;99375.35;1707956;82;21374;-77
2021/08/20 09:57:33;;;;;;;18.48;9.63;;;;;;;24.80;65.04;99377.70;1709618;82;21224;-78
2021/08/20 10:00:39;;;;;;;23.85;10.28;;;;;;;24.91;63.94;99381.50;1711111;83;21153;-79
2021/08/20 10:03:45;;;;;;;17.48;9.98;;;;;;;24.98;62.93;99376.41;1709386;83;21838;-78
2021/08/20 10:06:55;;;;;;;11.95;8.65;;;;;;;24.96;63.17;99377.83;1686451;83;21657;-78
2021/08/20 10:10:01;;;;;;;12.47;8.80;;;;;;;24.79;63.22;99383.83;1657033;85;21271;-78
2021/08/20 10:13:05;;;;;;;14.30;9.30;;;;;;;24.72;63.35;99398.16;1694191;83;21700;-78
2021/08/20 10:16:10;;;;;;;12.68;9.50;;;;;;;24.61;64.72;99407.77;1670657;86;21350;-77
2021/08/20 10:19:16;;;;;;;16.50;9.13;;;;;;;24.66;65.21;99409.12;1670186;86;21648;-77
2021/08/20 10:22:22;;;;;;;15.08;9.68;;;;;;;24.77;65.10;99417.42;1710822;83;21176;-78
2021/08/20 10:25:28;;;;;;;16.32;10.18;;;;;;;24.88;65.25;99428.79;1714401;83;21596;-78
2021/08/20 10:28:33;;;;;;;20.08;9.03;;;;;;;24.91;64.40;99433.81;1689259;82;21330;-78
2021/08/20 10:31:39;;;;;;;15.90;10.08;;;;;;;24.88;64.92;99444.17;1662843;84;21208;-78
2021/08/20 10:34:46;;;;;;;13.40;9.45;;;;;;;24.83;65.11;99441.42;1637128;87;21277;-77
2021/08/20 10:37:52;;;;;;;17.73;9.90;;;;;;;24.79;65.13;99439.76;1637375;87;21374;-78
2021/08/20 10:41:28;;;;;;;17.30;9.88;;;;;;;24.75;65.34;99442.89;1641391;84;21212;-77
2021/08/20 10:44:35;;;;;;;13.32;9.30;;;;;;;24.65;65.40;99452.16;1688471;85;21295;-77
2021/08/20 10:47:40;;;;;;;15.58;9.33;;;;;;;24.50;66.29;99449.47;1612088;86;21597;-77
2021/08/20 10:50:46;;;;;;;15.18;10.30;;;;;;;24.42;66.42;99457.09;1687564;83;21276;-79
2021/08/20 10:53:57;;;;;;;14.90;9.55;;;;;;;24.36;66.91;99445.08;1705558;83;21579;-78
2021/08/20 10:57:03;;;;;;;17.20;10.38;;;;;;;24.32;67.34;99422.98;1689118;83;21306;-79
2021/08/20 11:00:10;;;;;;;13.43;9.90;;;;;;;24.34;66.88;99415.17;1685881;85;21366;-77
2021/08/20 11:03:17;;;;;;;15.08;9.75;;;;;;;24.44;66.45;99436.66;1686629;83;21871;-77
2021/08/20 11:06:55;;;;;;;12.68;9.43;;;;;;;24.57;65.81;99447.77;1681455;83;21349;-78
2021/08/20 11:09:58;;;;;;;16.73;9.65;;;;;;;24.69;66.14;99449.63;1730846;82;21314;-77
2021/08/20 11:13:08;;;;;;;12.78;8.80;;;;;;;24.88;66.08;99442.77;1729646;82;21326;-78
2021/08/20 11:16:13;;;;;;;15.90;8.83;;;;;;;25.08;64.91;99446.86;1732705;82;21240;-77
2021/08/20 11:19:19;;;;;;;10.90;8.38;;;;;;;25.33;62.95;99456.14;1681740;85;21228;-77
2021/08/20 11:22:28;;;;;;;11.15;8.05;;;;;;;25.43;61.08;99464.44;1709908;82;21743;-77
2021/08/20 11:25:33;;;;;;;12.60;8.80;;;;;;;25.54;60.08;99464.59;1732222;82;21303;-78
2021/08/20 11:28:50;;;;;;;17.10;8.88;;;;;;;25.60;60.26;99459.23;1733441;82;21594;-77
2021/08/20 11:31:55;;;;;;;14.43;9.20;;;;;;;25.65;60.60;99458.34;1730419;82;21156;-78
2021/08/20 11:35:00;;;;;;;13.22;8.45;;;;;;;25.63;60.79;99467.02;1727389;82;21634;-78
2021/08/20 11:38:05;;;;;;;14.80;9.48;;;;;;;25.61;59.92;99469.86;1713725;83;21793;-77
2021/08/20 11:44:42;;;;;;;13.22;8.98;;;;;;;25.63;59.79;99468.98;1675982;85;21658;-78
2021/08/20 11:47:47;;;;;;;21.35;9.13;;;;;;;25.61;60.96;99457.27;1730411;82;21907;-78
2021/08/20 11:50:53;;;;;;;12.65;8.88;;;;;;;25.55;60.70;99443.89;1731151;82;21282;-77
2021/08/20 11:53:58;;;;;;;13.60;8.90;;;;;;;25.51;60.57;99418.18;1714470;83;21267;-78
2021/08/20 11:57:04;;;;;;;14.58;7.10;;;;;;;25.43;60.10;99400.88;1711208;83;21759;-77
2021/08/20 12:00:09;;;;;;;13.35;9.58;;;;;;;25.32;61.01;99387.31;1706066;82;21204;-77
2021/08/20 12:03:15;;;;;;;11.88;8.50;;;;;;;25.25;61.63;99393.23;1722333;82;21977;-77
2021/08/20 12:06:22;;;;;;;13.25;8.70;;;;;;;25.27;61.81;99409.75;1733809;82;21302;-77
2021/08/20 12:09:27;;;;;;;19.17;9.83;;;;;;;25.36;60.86;99424.74;1733907;82;21834;-77
2021/08/20 12:12:34;;;;;;;13.22;8.60;;;;;;;25.31;61.85;99422.00;1712955;83;21783;-77
2021/08/20 12:15:39;;;;;;;13.93;8.83;;;;;;;25.35;61.63;99423.91;1686504;85;21804;-78
2021/08/20 12:18:51;;;;;;;11.78;8.33;;;;;;;25.41;61.39;99434.52;1709178;83;21783;-78
2021/08/20 12:22:05;;;;;;;15.32;8.95;;;;;;;25.44;61.79;99440.91;1733095;82;21137;-77
2021/08/20 12:25:26;;;;;;;14.45;9.33;;;;;;;25.37;61.54;99437.63;1734405;82;21848;-77
2021/08/20 12:28:32;;;;;;;12.78;8.03;;;;;;;25.30;62.31;99420.34;1709978;82;21259;-77
2021/08/20 12:31:37;;;;;;;14.98;9.05;;;;;;;25.40;62.57;99423.03;1733579;82;21303;-78
2021/08/20 12:34:44;;;;;;;13.93;9.58;;;;;;;25.49;62.10;99422.66;1732644;82;21240;-77
2021/08/20 12:38:19;;;;;;;14.78;9.25;;;;;;;25.51;61.27;99420.98;1717766;82;21267;-78
2021/08/20 12:41:28;;;;;;;14.93;8.55;;;;;;;25.41;60.86;99430.32;1713813;82;21320;-78
2021/08/20 12:44:40;;;;;;;14.83;9.73;;;;;;;25.24;61.37;99432.98;1705110;82;21899;-78
2021/08/20 12:47:47;;;;;;;14.38;8.98;;;;;;;25.16;61.77;99424.38;1686041;83;21279;-77
2021/08/20 12:50:53;;;;;;;15.53;9.25;;;;;;;25.11;62.10;99432.26;1727774;82;21232;-78
2021/08/20 12:54:21;;;;;;;16.50;9.65;;;;;;;25.14;62.00;99439.25;1727880;82;21208;-78
2021/08/20 12:57:30;;;;;;;17.75;10.75;;;;;;;25.06;61.55;99445.43;1734163;82;21992;-78
2021/08/20 13:00:38;;;;;;;12.50;9.25;;;;;;;24.96;62.02;99442.16;1727282;82;21636;-78
2021/08/20 13:03:43;;;;;;;14.40;9.08;;;;;;;25.02;62.19;99445.73;1731218;82;21929;-77
2021/08/20 13:06:51;;;;;;;13.58;9.23;;;;;;;25.03;62.22;99449.67;1731932;82;21287;-78
2021/08/20 13:09:56;;;;;;;12.80;9.38;;;;;;;24.95;61.88;99448.88;1711770;83;21167;-77
2021/08/20 13:13:04;;;;;;;14.28;9.58;;;;;;;24.75;62.90;99435.91;1688890;84;21203;-78
2021/08/20 13:16:11;;;;;;;19.60;9.97;;;;;;;24.58;63.10;99437.69;1742865;81;21172;-78
2021/08/20 13:19:17;;;;;;;14.18;9.75;;;;;;;24.46;63.75;99438.59;1739692;81;21160;-78
2021/08/20 13:22:23;;;;;;;14.93;8.60;;;;;;;24.35;63.85;99441.98;1746897;82;21299;-77
2021/08/20 13:25:29;;;;;;;16.05;9.35;;;;;;;24.32;64.59;99438.92;1747760;81;21287;-77
2021/08/20 13:28:35;;;;;;;13.68;8.43;;;;;;;24.34;64.43;99433.89;1751260;81;21837;-78
2021/08/20 13:31:41;;;;;;;15.58;8.48;;;;;;;24.34;64.96;99437.52;1733726;81;21283;-77
2021/08/20 13:34:46;;;;;;;14.80;9.40;;;;;;;24.33;64.43;99439.22;1753238;81;21295;-77
2021/08/20 13:37:52;;;;;;;15.48;9.58;;;;;;;24.27;63.96;99436.98;1744853;81;21287;-77
2021/08/20 13:40:59;;;;;;;11.85;9.33;;;;;;;24.25;63.83;99437.02;1716096;83;21189;-77
2021/08/20 13:44:04;;;;;;;16.12;9.15;;;;;;;24.20;63.27;99430.33;1714944;83;21817;-77
2021/08/20 13:47:12;;;;;;;15.80;8.90;;;;;;;24.15;64.02;99426.17;1706658;83;21184;-78
2021/08/20 13:50:17;;;;;;;15.68;8.75;;;;;;;24.16;64.63;99426.44;1712077;83;21874;-77
2021/08/20 13:53:22;;;;;;;15.43;9.40;;;;;;;24.17;64.83;99425.31;1695386;83;21692;-78
2021/08/20 13:56:28;;;;;;;19.15;9.85;;;;;;;24.09;63.94;99441.30;1748772;82;21891;-77
2021/08/20 13:59:33;;;;;;;13.40;9.08;;;;;;;23.97;64.56;99433.80;1748704;82;21877;-77
2021/08/20 14:02:38;;;;;;;16.93;10.65;;;;;;;23.92;65.09;99432.42;1740944;81;21295;-78
2021/08/20 14:05:44;;;;;;;17.25;10.00;;;;;;;23.86;65.55;99432.17;1715358;83;21302;-78
2021/08/20 14:08:50;;;;;;;17.98;9.53;;;;;;;23.78;65.59;99434.15;1726278;81;21176;-78
2021/08/20 14:11:56;;;;;;;15.00;9.93;;;;;;;23.71;66.26;99438.09;1729906;82;21216;-77
2021/08/20 14:15:02;;;;;;;14.78;8.63;;;;;;;23.69;66.57;99434.73;1736876;82;21350;-77
2021/08/20 14:18:08;;;;;;;17.10;9.70;;;;;;;23.66;66.93;99425.52;1733136;82;21152;-77
2021/08/20 14:21:14;;;;;;;18.32;10.10;;;;;;;23.65;66.55;99419.66;1736099;82;21180;-77
2021/08/20 14:24:21;;;;;;;13.18;9.68;;;;;;;23.62;66.55;99413.23;1727917;82;21755;-77
2021/08/20 14:27:27;;;;;;;18.23;9.70;;;;;;;23.59;66.76;99410.17;1716559;83;21734;-77
2021/08/20 14:30:32;;;;;;;14.10;9.48;;;;;;;23.52;66.83;99423.02;1714416;83;21822;-77
2021/08/20 14:33:37;;;;;;;21.50;10.78;;;;;;;23.49;67.37;99415.23;1718058;82;21837;-77